Observation data for Hart on 05/24/2020      Previous  Date  Next       Current Mesonet Observations  Soil Data  Daily Summary Page  Observations in Plain Language
KHRS 240500Z 14010KT 17/12 A2984 RMK A01 T01670116  RH  073%=      5-min Rain = 0
KHRS 240505Z 14011KT 17/11 A2984 RMK A01 T01730113  RH  069%=      5-min Rain = 0
KHRS 240510Z 15010G15KT 18/11 A2984 RMK A01 T01750111  RH  067%=      5-min Rain = 0
KHRS 240515Z 15009KT 18/11 A2984 RMK A01 T01770110  RH  066%=      5-min Rain = 0
KHRS 240520Z 15010G15KT 18/11 A2984 RMK A01 T01780109  RH  065%=      5-min Rain = 0
KHRS 240525Z 15009G15KT 18/11 A2984 RMK A01 T01800107  RH  064%=      5-min Rain = 0
KHRS 240530Z 15009G14KT 18/11 A2984 RMK A01 T01810106  RH  062%=      5-min Rain = 0
KHRS 240535Z 15009KT 18/11 A2984 RMK A01 T01830105  RH  062%=      5-min Rain = 0
KHRS 240540Z 15009KT 18/11 A2984 RMK A01 T01820106  RH  062%=      5-min Rain = 0
KHRS 240545Z 15010G16KT 18/11 A2985 RMK A01 T01830106  RH  062%=      5-min Rain = 0
KHRS 240550Z 16012G18KT 18/11 A2985 RMK A01 T01830106  RH  062%=      5-min Rain = 0
KHRS 240555Z 16012G17KT 18/11 A2985 RMK A01 T01840107  RH  062%=      5-min Rain = 0
KHRS 240600Z 15011G16KT 18/11 A2985 RMK A01 T01840108  RH  062%=      5-min Rain = 0
KHRS 240605Z 16013KT 18/11 A2985 RMK A01 T01840109  RH  063%=      5-min Rain = 0
KHRS 240610Z 16012G17KT 18/11 A2984 RMK A01 T01840111  RH  063%=      5-min Rain = 0
KHRS 240615Z 16013G18KT 18/11 A2984 RMK A01 T01840113  RH  064%=      5-min Rain = 0
KHRS 240620Z 16012G17KT 19/11 A2985 RMK A01 T01850114  RH  065%=      5-min Rain = 0
KHRS 240625Z 16013KT 18/12 A2984 RMK A01 T01840117  RH  066%=      5-min Rain = 0
KHRS 240630Z 16014G19KT 19/12 A2984 RMK A01 T01850120  RH  067%=      5-min Rain = 0
KHRS 240635Z 16014G20KT 19/12 A2984 RMK A01 T01850123  RH  069%=      5-min Rain = 0
KHRS 240640Z 16014G20KT 18/13 A2984 RMK A01 T01840125  RH  070%=      5-min Rain = 0
KHRS 240645Z 16014G20KT 19/13 A2984 RMK A01 T01850127  RH  070%=      5-min Rain = 0
KHRS 240650Z 16013KT 18/13 A2984 RMK A01 T01840128  RH  071%=      5-min Rain = 0
KHRS 240655Z 16012G18KT 18/13 A2984 RMK A01 T01830129  RH  072%=      5-min Rain = 0
KHRS 240700Z 16012G20KT 18/13 A2984 RMK A01 T01840130  RH  072%=      5-min Rain = 0
KHRS 240705Z 16013G18KT 18/13 A2985 RMK A01 T01830131  RH  073%=      5-min Rain = 0
KHRS 240710Z 16013KT 18/13 A2985 RMK A01 T01830132  RH  074%=      5-min Rain = 0
KHRS 240715Z 16014G20KT 18/13 A2985 RMK A01 T01830133  RH  074%=      5-min Rain = 0
KHRS 240720Z 16012G19KT 18/13 A2985 RMK A01 T01830134  RH  074%=      5-min Rain = 0
KHRS 240725Z 16013G18KT 18/13 A2985 RMK A01 T01830134  RH  074%=      5-min Rain = 0
KHRS 240730Z 16014G19KT 18/13 A2985 RMK A01 T01830133  RH  074%=      5-min Rain = 0
KHRS 240735Z 17012G17KT 18/13 A2985 RMK A01 T01820133  RH  075%=      5-min Rain = 0
KHRS 240740Z 17012G19KT 18/13 A2985 RMK A01 T01810132  RH  074%=      5-min Rain = 0
KHRS 240745Z 17014G22KT 18/13 A2985 RMK A01 T01820130  RH  073%=      5-min Rain = 0
KHRS 240750Z 17012G19KT 18/13 A2985 RMK A01 T01830128  RH  072%=      5-min Rain = 0
KHRS 240755Z 17012G21KT 18/13 A2985 RMK A01 T01820127  RH  071%=      5-min Rain = 0
KHRS 240800Z 17012G18KT 18/13 A2985 RMK A01 T01810125  RH  071%=      5-min Rain = 0
KHRS 240805Z 17012G20KT 18/12 A2985 RMK A01 T01800123  RH  070%=      5-min Rain = 0
KHRS 240810Z 17011G19KT 18/12 A2985 RMK A01 T01780122  RH  071%=      5-min Rain = 0
KHRS 240815Z 17010G15KT 18/12 A2985 RMK A01 T01770121  RH  071%=      5-min Rain = 0
KHRS 240820Z 16014G19KT 18/12 A2985 RMK A01 T01750120  RH  072%=      5-min Rain = 0
KHRS 240825Z 16014KT 17/12 A2985 RMK A01 T01740120  RH  072%=      5-min Rain = 0
KHRS 240830Z 16014G19KT 17/12 A2985 RMK A01 T01720120  RH  073%=      5-min Rain = 0
KHRS 240835Z 16014KT 17/12 A2985 RMK A01 T01710120  RH  074%=      5-min Rain = 0
KHRS 240840Z 16012G19KT 17/12 A2985 RMK A01 T01690120  RH  074%=      5-min Rain = 0
KHRS 240845Z 16013G19KT 17/12 A2985 RMK A01 T01670120  RH  075%=      5-min Rain = 0
KHRS 240850Z 16013KT 17/12 A2985 RMK A01 T01660120  RH  076%=      5-min Rain = 0
KHRS 240855Z 16012G17KT 16/12 A2985 RMK A01 T01640120  RH  076%=      5-min Rain = 0
KHRS 240900Z 16011KT 16/12 A2985 RMK A01 T01630120  RH  077%=      5-min Rain = 0
KHRS 240905Z 16009KT 16/12 A2985 RMK A01 T01610120  RH  078%=      5-min Rain = 0
KHRS 240910Z 16009KT 16/12 A2985 RMK A01 T01590120  RH  079%=      5-min Rain = 0
KHRS 240915Z 16010KT 16/12 A2985 RMK A01 T01580120  RH  080%=      5-min Rain = 0
KHRS 240920Z 16010KT 16/12 A2986 RMK A01 T01560120  RH  080%=      5-min Rain = 0
KHRS 240925Z 16010KT 16/12 A2986 RMK A01 T01560119  RH  080%=      5-min Rain = 0
KHRS 240930Z 16009KT 16/12 A2986 RMK A01 T01550119  RH  080%=      5-min Rain = 0
KHRS 240935Z 16009KT 15/12 A2986 RMK A01 T01540119  RH  081%=      5-min Rain = 0
KHRS 240940Z 16011KT 15/12 A2986 RMK A01 T01540119  RH  081%=      5-min Rain = 0
KHRS 240945Z 15010KT 15/12 A2986 RMK A01 T01530119  RH  082%=      5-min Rain = 0
KHRS 240950Z 16011KT 15/12 A2986 RMK A01 T01530119  RH  082%=      5-min Rain = 0
KHRS 240955Z 16010KT 15/12 A2986 RMK A01 T01510119  RH  082%=      5-min Rain = 0
KHRS 241000Z 16010KT 15/12 A2986 RMK A01 T01500118  RH  083%=      5-min Rain = 0
KHRS 241005Z 16011KT 15/12 A2985 RMK A01 T01490117  RH  083%=      5-min Rain = 0
KHRS 241010Z 16009KT 15/12 A2986 RMK A01 T01490117  RH  083%=      5-min Rain = 0
KHRS 241015Z 16009KT 15/12 A2986 RMK A01 T01470116  RH  083%=      5-min Rain = 0
KHRS 241020Z 15010KT 15/12 A2986 RMK A01 T01470116  RH  083%=      5-min Rain = 0
KHRS 241025Z 16010KT 15/12 A2986 RMK A01 T01470115  RH  083%=      5-min Rain = 0
KHRS 241030Z 16011KT 15/12 A2986 RMK A01 T01470115  RH  082%=      5-min Rain = 0
KHRS 241035Z 16009G14KT 15/11 A2986 RMK A01 T01470114  RH  082%=      5-min Rain = 0
KHRS 241040Z 16009KT 15/11 A2986 RMK A01 T01470114  RH  082%=      5-min Rain = 0
KHRS 241045Z 15008KT 15/11 A2986 RMK A01 T01460113  RH  082%=      5-min Rain = 0
KHRS 241050Z 15008KT 14/11 A2986 RMK A01 T01440113  RH  083%=      5-min Rain = 0
KHRS 241055Z 16008KT 14/11 A2986 RMK A01 T01440113  RH  083%=      5-min Rain = 0
KHRS 241100Z 16006KT 14/11 A2986 RMK A01 T01440112  RH  083%=      5-min Rain = 0
KHRS 241105Z 16008KT 14/11 A2987 RMK A01 T01430112  RH  083%=      5-min Rain = 0
KHRS 241110Z 15007KT 14/11 A2987 RMK A01 T01430112  RH  083%=      5-min Rain = 0
KHRS 241115Z 16009KT 14/11 A2987 RMK A01 T01430112  RH  083%=      5-min Rain = 0
KHRS 241120Z 16008KT 14/11 A2987 RMK A01 T01430112  RH  083%=      5-min Rain = 0
KHRS 241125Z 17006KT 14/11 A2987 RMK A01 T01420111  RH  083%=      5-min Rain = 0
KHRS 241130Z 17007KT 14/11 A2987 RMK A01 T01400111  RH  084%=      5-min Rain = 0
KHRS 241135Z 17007KT 14/11 A2987 RMK A01 T01390111  RH  084%=      5-min Rain = 0
KHRS 241140Z 17006KT 14/11 A2987 RMK A01 T01400111  RH  084%=      5-min Rain = 0
KHRS 241145Z 17006G11KT 14/11 A2987 RMK A01 T01400111  RH  084%=      5-min Rain = 0
KHRS 241150Z 17006KT 14/11 A2986 RMK A01 T01400111  RH  084%=      5-min Rain = 0
KHRS 241155Z 17006KT 14/11 A2986 RMK A01 T01400111  RH  084%=      5-min Rain = 0
KHRS 241200Z 17005KT 14/11 A2986 RMK A01 T01390111  RH  084%=      5-min Rain = 0
KHRS 241205Z 17006KT 14/11 A2986 RMK A01 T01390111  RH  085%=      5-min Rain = 0
KHRS 241210Z 17006KT 14/11 A2987 RMK A01 T01390111  RH  085%=      5-min Rain = 0
KHRS 241215Z 18007KT 14/11 A2987 RMK A01 T01420113  RH  084%=      5-min Rain = 0
KHRS 241220Z 18006KT 15/11 A2987 RMK A01 T01450114  RH  083%=      5-min Rain = 0
KHRS 241225Z 19007G12KT 15/12 A2987 RMK A01 T01480115  RH  082%=      5-min Rain = 0
KHRS 241230Z 19008KT 15/12 A2987 RMK A01 T01510116  RH  081%=      5-min Rain = 0
KHRS 241235Z 19008KT 15/12 A2987 RMK A01 T01540117  RH  080%=      5-min Rain = 0
KHRS 241240Z 19008KT 16/12 A2987 RMK A01 T01560118  RH  079%=      5-min Rain = 0
KHRS 241245Z 19010KT 16/12 A2987 RMK A01 T01590118  RH  078%=      5-min Rain = 0
KHRS 241250Z 19011KT 16/12 A2987 RMK A01 T01620119  RH  077%=      5-min Rain = 0
KHRS 241255Z 19009KT 16/12 A2987 RMK A01 T01640120  RH  077%=      5-min Rain = 0
KHRS 241300Z 19009KT 17/12 A2987 RMK A01 T01670121  RH  076%=      5-min Rain = 0
KHRS 241305Z 19012KT 17/12 A2987 RMK A01 T01700122  RH  075%=      5-min Rain = 0
KHRS 241310Z 19010G17KT 17/12 A2987 RMK A01 T01730123  RH  074%=      5-min Rain = 0
KHRS 241315Z 19011KT 18/12 A2987 RMK A01 T01770123  RH  072%=      5-min Rain = 0
KHRS 241320Z 19012KT 18/12 A2987 RMK A01 T01810124  RH  071%=      5-min Rain = 0
KHRS 241325Z 19012KT 19/13 A2987 RMK A01 T01850125  RH  069%=      5-min Rain = 0
KHRS 241330Z 19014G20KT 19/13 A2987 RMK A01 T01870125  RH  068%=      5-min Rain = 0
KHRS 241335Z 19015KT 19/13 A2987 RMK A01 T01910125  RH  067%=      5-min Rain = 0
KHRS 241340Z 19014KT 20/13 A2987 RMK A01 T01950126  RH  065%=      5-min Rain = 0
KHRS 241345Z 20017G22KT 20/13 A2986 RMK A01 T01960125  RH  065%=      5-min Rain = 0
KHRS 241350Z 20016KT 20/13 A2986 RMK A01 T01970125  RH  065%=      5-min Rain = 0
KHRS 241355Z 19014G19KT 20/13 A2986 RMK A01 T01950125  RH  065%=      5-min Rain = 0
KHRS 241400Z 20016KT 20/13 A2986 RMK A01 T01970125  RH  064%=      5-min Rain = 0
KHRS 241405Z 20015G21KT 20/13 A2986 RMK A01 T01980125  RH  064%=      5-min Rain = 0
KHRS 241410Z 20015G20KT 20/13 A2986 RMK A01 T02010127  RH  063%=      5-min Rain = 0
KHRS 241415Z 20016G21KT 20/13 A2986 RMK A01 T02040127  RH  063%=      5-min Rain = 0
KHRS 241420Z 20016KT 21/13 A2986 RMK A01 T02070129  RH  062%=      5-min Rain = 0
KHRS 241425Z 20015G22KT 21/13 A2986 RMK A01 T02100130  RH  062%=      5-min Rain = 0
KHRS 241430Z 20017KT 21/13 A2986 RMK A01 T02120130  RH  061%=      5-min Rain = 0
KHRS 241435Z 20015KT 21/13 A2986 RMK A01 T02140131  RH  060%=      5-min Rain = 0
KHRS 241440Z 19018G24KT 21/13 A2986 RMK A01 T02140130  RH  060%=      5-min Rain = 0
KHRS 241445Z 20016G22KT 22/13 A2986 RMK A01 T02170131  RH  059%=      5-min Rain = 0
KHRS 241450Z 20018KT 22/13 A2985 RMK A01 T02190131  RH  058%=      5-min Rain = 0
KHRS 241455Z 20016G23KT 22/13 A2985 RMK A01 T02240132  RH  057%=      5-min Rain = 0
KHRS 241500Z 20017KT 22/13 A2985 RMK A01 T02240132  RH  057%=      5-min Rain = 0
KHRS 241505Z 20017G24KT 23/13 A2985 RMK A01 T02270133  RH  056%=      5-min Rain = 0
KHRS 241510Z 21017KT 23/13 A2985 RMK A01 T02280132  RH  056%=      5-min Rain = 0
KHRS 241515Z 20018KT 23/13 A2986 RMK A01 T02280133  RH  056%=      5-min Rain = 0
KHRS 241520Z 21017G22KT 23/13 A2986 RMK A01 T02290134  RH  056%=      5-min Rain = 0
KHRS 241525Z 19016KT 23/13 A2986 RMK A01 T02320133  RH  055%=      5-min Rain = 0
KHRS 241530Z 20017G23KT 23/13 A2985 RMK A01 T02310134  RH  055%=      5-min Rain = 0
KHRS 241535Z 20018KT 23/13 A2985 RMK A01 T02300133  RH  055%=      5-min Rain = 0
KHRS 241540Z 21017G22KT 23/13 A2985 RMK A01 T02310131  RH  054%=      5-min Rain = 0
KHRS 241545Z 20016G23KT 23/13 A2985 RMK A01 T02330132  RH  054%=      5-min Rain = 0
KHRS 241550Z 20016G21KT 24/13 A2985 RMK A01 T02360132  RH  053%=      5-min Rain = 0
KHRS 241555Z 20017KT 24/13 A2985 RMK A01 T02370131  RH  052%=      5-min Rain = 0
KHRS 241600Z 21016G21KT 24/13 A2985 RMK A01 T02400132  RH  052%=      5-min Rain = 0
KHRS 241605Z 22015G20KT 25/13 A2985 RMK A01 T02450128  RH  049%=      5-min Rain = 0
KHRS 241610Z 21016KT 24/13 A2984 RMK A01 T02440127  RH  049%=      5-min Rain = 0
KHRS 241615Z 21015G20KT 25/13 A2984 RMK A01 T02470128  RH  048%=      5-min Rain = 0
KHRS 241620Z 22016G21KT 25/13 A2984 RMK A01 T02480126  RH  047%=      5-min Rain = 0
KHRS 241625Z 21016G21KT 25/13 A2984 RMK A01 T02500126  RH  047%=      5-min Rain = 0
KHRS 241630Z 22016G21KT 25/12 A2984 RMK A01 T02480124  RH  047%=      5-min Rain = 0
KHRS 241635Z 21014G19KT 25/12 A2984 RMK A01 T02520124  RH  046%=      5-min Rain = 0
KHRS 241640Z 22014KT 26/12 A2985 RMK A01 T02550122  RH  044%=      5-min Rain = 0
KHRS 241645Z 21011G17KT 26/13 A2985 RMK A01 T02580125  RH  044%=      5-min Rain = 0
KHRS 241650Z 22012KT 26/12 A2985 RMK A01 T02620119  RH  042%=      5-min Rain = 0
KHRS 241655Z 22011G17KT 26/12 A2985 RMK A01 T02610120  RH  042%=      5-min Rain = 0
KHRS 241700Z 24010G17KT 27/11 A2985 RMK A01 T02680112  RH  038%=      5-min Rain = 0
KHRS 241705Z 23010G16KT 27/11 A2985 RMK A01 T02660112  RH  039%=      5-min Rain = 0
KHRS 241710Z 23011G16KT 27/11 A2985 RMK A01 T02680109  RH  038%=      5-min Rain = 0
KHRS 241715Z 23010KT 27/11 A2985 RMK A01 T02690108  RH  037%=      5-min Rain = 0
KHRS 241720Z 26009KT 27/11 A2985 RMK A01 T02700110  RH  037%=      5-min Rain = 0
KHRS 241725Z 25011G20KT 28/10 A2985 RMK A01 T02750103  RH  035%=      5-min Rain = 0
KHRS 241730Z 25008G13KT 28/10 A2985 RMK A01 T02760102  RH  034%=      5-min Rain = 0
KHRS 241735Z 23009KT 28/10 A2985 RMK A01 T02780098  RH  033%=      5-min Rain = 0
KHRS 241740Z 23009G15KT 28/10 A2985 RMK A01 T02810098  RH  032%=      5-min Rain = 0
KHRS 241745Z 25008KT 28/10 A2985 RMK A01 T02840098  RH  032%=      5-min Rain = 0
KHRS 241750Z 24007G13KT 29/10 A2985 RMK A01 T02870096  RH  031%=      5-min Rain = 0
KHRS 241755Z 22010KT 29/10 A2984 RMK A01 T02870096  RH  031%=      5-min Rain = 0
KHRS 241800Z 22006G11KT 29/10 A2984 RMK A01 T02870095  RH  031%=      5-min Rain = 0
KHRS 241805Z 19006KT 29/10 A2984 RMK A01 T02880095  RH  030%=      5-min Rain = 0
KHRS 241810Z 22008G15KT 29/09 A2984 RMK A01 T02920085  RH  028%=      5-min Rain = 0
KHRS 241815Z 22010KT 29/08 A2983 RMK A01 T02940081  RH  027%=      5-min Rain = 0
KHRS 241820Z 22008G13KT 29/09 A2983 RMK A01 T02940085  RH  027%=      5-min Rain = 0
KHRS 241825Z 22010KT 29/08 A2983 RMK A01 T02940077  RH  026%=      5-min Rain = 0
KHRS 241830Z 19005G12KT 30/08 A2983 RMK A01 T02970082  RH  027%=      5-min Rain = 0
KHRS 241835Z 17007KT 30/08 A2983 RMK A01 T02980082  RH  026%=      5-min Rain = 0
KHRS 241840Z 19007G12KT 30/07 A2983 RMK A01 T03030073  RH  024%=      5-min Rain = 0
KHRS 241845Z 19006KT 31/07 A2982 RMK A01 T03080070  RH  023%=      5-min Rain = 0
KHRS 241850Z 24006KT 30/07 A2982 RMK A01 T03030074  RH  024%=      5-min Rain = 0
KHRS 241855Z 18006G12KT 31/05 A2982 RMK A01 T03080052  RH  020%=      5-min Rain = 0
KHRS 241900Z 20011G21KT 31/06 A2982 RMK A01 T03070057  RH  021%=      5-min Rain = 0
KHRS 241905Z 19007KT 31/06 A2982 RMK A01 T03090059  RH  021%=      5-min Rain = 0
KHRS 241910Z 18007KT 31/04 A2982 RMK A01 T03080039  RH  018%=      5-min Rain = 0
KHRS 241915Z 27007KT 31/05 A2981 RMK A01 T03090051  RH  020%=      5-min Rain = 0
KHRS 241920Z 21010G17KT 31/05 A2981 RMK A01 T03110049  RH  019%=      5-min Rain = 0
KHRS 241925Z 22008G15KT 31/04 A2981 RMK A01 T03120044  RH  019%=      5-min Rain = 0
KHRS 241930Z 19012G19KT 32/03 A298 RMK A01 T03160032  RH  017%=      5-min Rain = 0
KHRS 241935Z 18013KT 32/02 A298 RMK A01 T03150021  RH  016%=      5-min Rain = 0
KHRS 241940Z 19010G16KT 32/02 A298 RMK A01 T03160024  RH  016%=      5-min Rain = 0
KHRS 241945Z 19007G14KT 32/02 A298 RMK A01 T03170024  RH  016%=      5-min Rain = 0
KHRS 241950Z 17009G14KT 32/02 A298 RMK A01 T03180024  RH  016%=      5-min Rain = 0
KHRS 241955Z 15007KT 31/03 A2979 RMK A01 T03110028  RH  017%=      5-min Rain = 0
KHRS 242000Z 20007G12KT 32/03 A2979 RMK A01 T03170028  RH  016%=      5-min Rain = 0
KHRS 242005Z 25013G19KT 32/01 A2979 RMK A01 T03220012  RH  014%=      5-min Rain = 0
KHRS 242010Z 22007G13KT 32/01 A2979 RMK A01 T03200012  RH  014%=      5-min Rain = 0
KHRS 242015Z 14006G11KT 32/02 A2978 RMK A01 T03230020  RH  015%=      5-min Rain = 0
KHRS 242020Z 20008G13KT 33/02 A2978 RMK A01 T03250017  RH  014%=      5-min Rain = 0
KHRS 242025Z 22008KT 32/01 A2978 RMK A01 T03210013  RH  014%=      5-min Rain = 0
KHRS 242030Z 17004KT 33/01 A2978 RMK A01 T03260014  RH  014%=      5-min Rain = 0
KHRS 242035Z 23006G11KT 32/01 A2977 RMK A01 T03230008  RH  014%=      5-min Rain = 0
KHRS 242040Z 17006KT 32/01 A2977 RMK A01 T03170007  RH  014%=      5-min Rain = 0
KHRS 242045Z 24008KT 31/01 A2977 RMK A01 T03110006  RH  014%=      5-min Rain = 0
KHRS 242050Z 21008G13KT 31/00 A2977 RMK A01 T03060003  RH  014%=      5-min Rain = 0
KHRS 242055Z 18006G11KT 30/01 A2977 RMK A01 T03020013  RH  016%=      5-min Rain = 0
KHRS 242100Z 15010G18KT 30/08 A2977 RMK A01 T03000078  RH  025%=      5-min Rain = 0
KHRS 242105Z 14014G20KT 29/10 A2976 RMK A01 T02940100  RH  030%=      5-min Rain = 0
KHRS 242110Z 15011G16KT 29/10 A2976 RMK A01 T02910097  RH  030%=      5-min Rain = 0
KHRS 242115Z 14014G19KT 29/10 A2976 RMK A01 T02900104  RH  032%=      5-min Rain = 0
KHRS 242120Z 14013G18KT 29/09 A2975 RMK A01 T02870085  RH  029%=      5-min Rain = 0
KHRS 242125Z 15011G16KT 29/07 A2975 RMK A01 T02870070  RH  026%=      5-min Rain = 0
KHRS 242130Z 15010G15KT 28/09 A2975 RMK A01 T02840091  RH  030%=      5-min Rain = 0
KHRS 242135Z 14012G18KT 28/08 A2975 RMK A01 T02830077  RH  028%=      5-min Rain = 0
KHRS 242140Z 16012G19KT 28/06 A2975 RMK A01 T02830061  RH  025%=      5-min Rain = 0
KHRS 242145Z 16012KT 28/06 A2975 RMK A01 T02820061  RH  025%=      5-min Rain = 0
KHRS 242150Z 16011KT 28/07 A2975 RMK A01 T02810065  RH  026%=      5-min Rain = 0
KHRS 242155Z 16011KT 28/07 A2975 RMK A01 T02780069  RH  027%=      5-min Rain = 0
KHRS 242200Z 15015G25KT 28/07 A2975 RMK A01 T02760071  RH  028%=      5-min Rain = 0
KHRS 242205Z 16013G25KT 27/04 A2975 RMK A01 T02720042  RH  023%=      5-min Rain = 0
KHRS 242210Z 16013G20KT 27/04 A2974 RMK A01 T02680038  RH  023%=      5-min Rain = 0
KHRS 242215Z 15013G19KT 27/03 A2974 RMK A01 T02690025  RH  021%=      5-min Rain = 0
KHRS 242220Z 14013G19KT 27/03 A2974 RMK A01 T02680028  RH  021%=      5-min Rain = 0
KHRS 242225Z 16009KT 27/03 A2973 RMK A01 T02690031  RH  022%=      5-min Rain = 0
KHRS 242230Z 15008G13KT 27/04 A2973 RMK A01 T02720038  RH  023%=      5-min Rain = 0
KHRS 242235Z 14009KT 28/04 A2973 RMK A01 T02750042  RH  023%=      5-min Rain = 0
KHRS 242240Z 13008G13KT 28/03 A2972 RMK A01 T02770031  RH  021%=      5-min Rain = 0
KHRS 242245Z 11006KT 28/03 A2972 RMK A01 T02770030  RH  021%=      5-min Rain = 0
KHRS 242250Z 09006KT 28/02 A2971 RMK A01 T02770021  RH  019%=      5-min Rain = 0
KHRS 242255Z 11006KT 28/02 A2971 RMK A01 T02760017  RH  019%=      5-min Rain = 0
KHRS 242300Z 14006KT 27/02 A2971 RMK A01 T02730020  RH  020%=      5-min Rain = 0
KHRS 242305Z 14007KT 27/02 A2971 RMK A01 T02720023  RH  020%=      5-min Rain = 0
KHRS 242310Z 13009KT 27/03 A2971 RMK A01 T02710028  RH  021%=      5-min Rain = 0
KHRS 242315Z 12008KT 27/03 A2971 RMK A01 T02680026  RH  021%=      5-min Rain = 0
KHRS 242320Z 12009KT 27/03 A2972 RMK A01 T02660030  RH  022%=      5-min Rain = 0
KHRS 242325Z 12010KT 26/03 A2972 RMK A01 T02630032  RH  023%=      5-min Rain = 0
KHRS 242330Z 12008KT 26/03 A2972 RMK A01 T02610034  RH  023%=      5-min Rain = 0
KHRS 242335Z 13010KT 26/03 A2972 RMK A01 T02580029  RH  023%=      5-min Rain = 0
KHRS 242340Z 12010KT 26/03 A2971 RMK A01 T02590029  RH  023%=      5-min Rain = 0
KHRS 242345Z 12009KT 26/04 A297 RMK A01 T02580036  RH  024%=      5-min Rain = 0
KHRS 242350Z 12008KT 26/04 A297 RMK A01 T02560044  RH  026%=      5-min Rain = 0
KHRS 242355Z 12008KT 25/06 A297 RMK A01 T02540057  RH  028%=      5-min Rain = 0
KHRS 250000Z 13008KT 25/07 A297 RMK A01 T02540070  RH  031%=      5-min Rain = 0
KHRS 250005Z 13008KT 26/08 A297 RMK A01 T02560078  RH  033%=      5-min Rain = 0
KHRS 250010Z 11012KT 26/08 A2969 RMK A01 T02570083  RH  034%=      5-min Rain = 0
KHRS 250015Z 11013KT 26/08 A2969 RMK A01 T02570079  RH  033%=      5-min Rain = 0
KHRS 250020Z 12010KT 26/08 A2969 RMK A01 T02570079  RH  033%=      5-min Rain = 0
KHRS 250025Z 13008KT 25/07 A2968 RMK A01 T02540069  RH  031%=      5-min Rain = 0
KHRS 250030Z 14007KT 25/07 A2968 RMK A01 T02520065  RH  031%=      5-min Rain = 0
KHRS 250035Z 15005KT 25/06 A2968 RMK A01 T02540063  RH  030%=      5-min Rain = 0
KHRS 250040Z 16005KT 25/07 A2968 RMK A01 T02540069  RH  031%=      5-min Rain = 0
KHRS 250045Z 16005KT 25/07 A2968 RMK A01 T02510072  RH  032%=      5-min Rain = 0
KHRS 250050Z 16005KT 25/07 A2968 RMK A01 T02480073  RH  033%=      5-min Rain = 0
KHRS 250055Z 15004G9KT 25/04 A2967 RMK A01 T02490037  RH  026%=      5-min Rain = 0
KHRS 250100Z 16004KT 25/03 A2967 RMK A01 T02520026  RH  023%=      5-min Rain = 0
KHRS 250105Z 14004KT 25/03 A2966 RMK A01 T02490026  RH  024%=      5-min Rain = 0
KHRS 250110Z 19004KT 25/03 A2966 RMK A01 T02450027  RH  024%=      5-min Rain = 0
KHRS 250115Z 29002KT 25/02 A2966 RMK A01 T02450024  RH  024%=      5-min Rain = 0
KHRS 250120Z 22003KT 25/03 A2965 RMK A01 T02450027  RH  024%=      5-min Rain = 0
KHRS 250125Z 15001KT 25/03 A2965 RMK A01 T02450027  RH  024%=      5-min Rain = 0
KHRS 250130Z 17002KT 25/02 A2966 RMK A01 T02460024  RH  024%=      5-min Rain = 0
KHRS 250135Z 17002KT 25/03 A2967 RMK A01 T02480025  RH  024%=      5-min Rain = 0
KHRS 250140Z 17002KT 25/03 A2967 RMK A01 T02470030  RH  025%=      5-min Rain = 0
KHRS 250145Z 17004KT 24/03 A2968 RMK A01 T02440033  RH  026%=      5-min Rain = 0
KHRS 250150Z 18005KT 24/03 A2968 RMK A01 T02410030  RH  026%=      5-min Rain = 0
KHRS 250155Z 19006KT 24/04 A2968 RMK A01 T02360039  RH  028%=      5-min Rain = 0
KHRS 250200Z 21005KT 23/05 A2969 RMK A01 T02270053  RH  033%=      5-min Rain = 0
KHRS 250205Z 21005KT 22/07 A2969 RMK A01 T02200066  RH  038%=      5-min Rain = 0
KHRS 250210Z 22005KT 22/07 A2968 RMK A01 T02170071  RH  039%=      5-min Rain = 0
KHRS 250215Z 23006KT 22/07 A2968 RMK A01 T02170074  RH  040%=      5-min Rain = 0
KHRS 250220Z 23006KT 22/08 A2968 RMK A01 T02170081  RH  042%=      5-min Rain = 0
KHRS 250225Z 22006KT 21/08 A2969 RMK A01 T02130083  RH  044%=      5-min Rain = 0
KHRS 250230Z 21006KT 21/08 A297 RMK A01 T02090084  RH  045%=      5-min Rain = 0
KHRS 250235Z 20008KT 20/09 A297 RMK A01 T02020086  RH  048%=      5-min Rain = 0
KHRS 250240Z 20008KT 20/08 A2971 RMK A01 T02010083  RH  047%=      5-min Rain = 0
KHRS 250245Z 18006KT 20/08 A2971 RMK A01 T02030075  RH  044%=      5-min Rain = 0
KHRS 250250Z 18005KT 21/06 A2971 RMK A01 T02090061  RH  039%=      5-min Rain = 0
KHRS 250255Z 17005KT 21/06 A2971 RMK A01 T02130058  RH  037%=      5-min Rain = 0
KHRS 250300Z 17006KT 22/05 A2971 RMK A01 T02150052  RH  035%=      5-min Rain = 0
KHRS 250305Z 17005KT 22/05 A2971 RMK A01 T02150054  RH  036%=      5-min Rain = 0
KHRS 250310Z 16005KT 21/06 A2971 RMK A01 T02130059  RH  037%=      5-min Rain = 0
KHRS 250315Z 16005KT 21/06 A297 RMK A01 T02090062  RH  039%=      5-min Rain = 0
KHRS 250320Z 17008G16KT 21/06 A2971 RMK A01 T02050064  RH  040%=      5-min Rain = 0
KHRS 250325Z 18010G18KT 21/06 A2971 RMK A01 T02060064  RH  040%=      5-min Rain = 0
KHRS 250330Z 18011KT 21/07 A2971 RMK A01 T02050073  RH  043%=      5-min Rain = 0
KHRS 250335Z 18010G15KT 20/08 A2971 RMK A01 T02000082  RH  047%=      5-min Rain = 0
KHRS 250340Z 17009KT 20/09 A2972 RMK A01 T01970087  RH  050%=      5-min Rain = 0
KHRS 250345Z 17009G14KT 19/09 A2972 RMK A01 T01940091  RH  052%=      5-min Rain = 0
KHRS 250350Z 17008KT 19/09 A2973 RMK A01 T01910093  RH  054%=      5-min Rain = 0
KHRS 250355Z 16009G14KT 19/09 A2973 RMK A01 T01890094  RH  055%=      5-min Rain = 0
KHRS 250400Z 14010KT 19/10 A2974 RMK A01 T01860096  RH  056%=      5-min Rain = 0
KHRS 250405Z 13010G16KT 18/09 A2973 RMK A01 T01840094  RH  057%=      5-min Rain = 0
KHRS 250410Z 13013G18KT 19/09 A2973 RMK A01 T01860089  RH  054%=      5-min Rain = 0
KHRS 250415Z 13014KT 19/09 A2973 RMK A01 T01880087  RH  053%=      5-min Rain = 0
KHRS 250420Z 13013KT 19/09 A2973 RMK A01 T01880086  RH  052%=      5-min Rain = 0
KHRS 250425Z 13014G19KT 19/09 A2973 RMK A01 T01870088  RH  053%=      5-min Rain = 0
KHRS 250430Z 13014KT 19/09 A2974 RMK A01 T01860090  RH  054%=      5-min Rain = 0
KHRS 250435Z 13015KT 18/09 A2974 RMK A01 T01840092  RH  056%=      5-min Rain = 0
KHRS 250440Z 13015G21KT 18/09 A2974 RMK A01 T01820094  RH  057%=      5-min Rain = 0
KHRS 250445Z 13015G20KT 18/10 A2974 RMK A01 T01810096  RH  059%=      5-min Rain = 0
KHRS 250450Z 12016G22KT 18/10 A2975 RMK A01 T01790099  RH  060%=      5-min Rain = 0
KHRS 250455Z 12017G22KT 18/10 A2976 RMK A01 T01780100  RH  061%=      5-min Rain = 0

Page generated in 0.0319 seconds.